Terminal Aerodrome Forecast
Issued by NWS

Home | Current Version | Previous Version | Text Only | Print | Product List | Glossary On
Versions: 1 2 3 4 5 6 7 8 9 10 11 12 13 14 15 16 17 18 19 20 21 22 23 24 25 26 27 28 29 30 31 32 33 34 35 36 37 38 39 40 41 42 43 44 45 46 47 48 49 50
206
FTAK31 PAJK 201740
TAFAYA
TAF
PAYA 201740Z 2018/2118 09003KT P6SM BKN005 OVC020
     FM202000 13005KT P6SM SCT005 OVC015
     FM210300 13005KT 5SM -RA BR SCT004 OVC010
     FM210600 13004KT 3SM -RA BR BKN004 OVC008
     FM211200 VRB02KT 2SM -DZ BR OVC003
     AMD LTD TO CLD VIS AND WIND=

USA.gov is the U.S. government's official web portal to all federal, state and local government web resources and services.